Time;durP1;ratioP1;P1;durP2;ratioP2;P2;SDS_P1;SDS_P2;PMS_P1;PMS_P2;Temp;Humidity;BMP_temperature;BMP_pressure;BME280_temperature;BME280_humidity;BME280_pressure;Samples;Min_cycle;Max_cycle;Signal;HPM_P1;HPM_P2
2022/01/19 00:00:31;;;;;;;8.48;3.97;;;;;;;3.13;93.53;103436.09;4993844;28;97299;-36
2022/01/19 00:02:57;;;;;;;11.68;3.67;;;;;;;3.14;93.11;103431.63;4997444;28;96459;-37
2022/01/19 00:05:22;;;;;;;12.40;3.97;;;;;;;3.19;93.01;103438.84;4997798;28;96472;-37
2022/01/19 00:07:48;;;;;;;8.80;3.53;;;;;;;3.04;93.22;103409.22;4996697;28;99351;-36
2022/01/19 00:10:17;;;;;;;10.95;3.13;;;;;;;3.08;93.31;103421.75;4997036;28;97747;-37
2022/01/19 00:12:45;;;;;;;9.27;5.40;;;;;;;3.06;93.33;103430.66;4996639;28;96511;-36
2022/01/19 00:15:10;;;;;;;11.60;5.50;;;;;;;3.04;92.97;103438.66;4997222;28;96743;-37
2022/01/19 00:17:36;;;;;;;7.40;4.50;;;;;;;2.93;93.19;103419.81;4996861;28;97964;-37
2022/01/19 00:20:01;;;;;;;18.95;4.72;;;;;;;2.98;93.18;103427.91;4996953;28;97933;-36
2022/01/19 00:22:27;;;;;;;9.52;5.85;;;;;;;2.97;93.66;103426.97;4996962;28;96619;-37
2022/01/19 00:24:53;;;;;;;17.55;5.57;;;;;;;2.83;93.72;103399.16;4995551;28;96857;-37
2022/01/19 00:27:18;;;;;;;24.95;5.55;;;;;;;2.88;93.49;103413.47;4997176;28;97403;-36
2022/01/19 00:29:43;;;;;;;10.75;5.07;;;;;;;2.76;93.17;103384.81;4997189;28;98381;-36
2022/01/19 00:32:08;;;;;;;10.52;5.05;;;;;;;2.87;92.95;103392.06;4996192;28;114735;-37
2022/01/19 00:34:34;;;;;;;10.05;4.18;;;;;;;2.75;93.43;103355.34;4997105;28;96791;-36
2022/01/19 00:36:59;;;;;;;11.35;5.38;;;;;;;2.76;92.86;103346.44;4995085;28;123717;-37
2022/01/19 00:39:29;;;;;;;6.82;3.40;;;;;;;2.80;92.92;103336.66;4995748;28;123497;-37
2022/01/19 00:41:56;;;;;;;8.10;4.55;;;;;;;2.77;93.15;103342.88;4997066;28;96527;-36
2022/01/19 00:44:21;;;;;;;7.88;3.40;;;;;;;2.66;93.02;103307.97;4996712;28;96735;-36
2022/01/19 00:46:46;;;;;;;10.38;4.22;;;;;;;2.67;92.78;103317.81;4995519;28;126686;-36
2022/01/19 00:49:12;;;;;;;10.85;4.63;;;;;;;2.60;93.07;103315.03;4995429;28;127485;-37
2022/01/19 00:51:37;;;;;;;6.35;3.15;;;;;;;2.57;92.66;103307.84;4994141;28;117423;-37
2022/01/19 00:54:02;;;;;;;12.98;3.70;;;;;;;2.64;92.79;103328.44;4996499;28;100640;-37
2022/01/19 00:56:27;;;;;;;6.30;4.43;;;;;;;2.57;92.61;103325.69;4995595;28;124611;-36
2022/01/19 00:58:53;;;;;;;10.95;4.50;;;;;;;2.59;92.90;103331.97;4996051;28;99930;-37
2022/01/19 01:01:18;;;;;;;7.57;3.83;;;;;;;2.45;92.79;103305.03;4995809;28;96532;-37
2022/01/19 01:03:43;;;;;;;13.90;4.22;;;;;;;2.55;93.00;103339.97;4996602;28;96897;-37
2022/01/19 01:06:09;;;;;;;10.95;3.60;;;;;;;2.40;92.57;103313.00;4994919;28;126383;-36
2022/01/19 01:08:34;;;;;;;9.18;3.63;;;;;;;2.54;92.97;103334.59;4995776;28;99267;-37
2022/01/19 01:10:59;;;;;;;6.53;3.75;;;;;;;2.55;92.98;103318.56;4996018;28;98572;-36
2022/01/19 01:16:04;;;;;;;4.97;3.10;;;;;;;2.54;92.93;103303.38;4996037;28;97368;-36
2022/01/19 01:18:32;;;;;;;11.55;4.93;;;;;;;2.53;92.70;103296.25;4994903;28;99369;-36
2022/01/19 01:20:59;;;;;;;19.05;5.45;;;;;;;2.51;93.02;103268.56;4994766;28;96654;-36
2022/01/19 01:23:27;;;;;;;11.13;6.05;;;;;;;2.28;93.24;103219.28;4994773;28;96783;-36
2022/01/19 01:25:53;;;;;;;6.10;3.22;;;;;;;2.55;93.15;103251.69;4993958;28;99018;-37
2022/01/19 01:28:19;;;;;;;5.55;3.88;;;;;;;2.53;93.13;103242.75;4994253;28;100913;-37
2022/01/19 01:30:46;;;;;;;8.20;3.67;;;;;;;2.37;93.06;103211.34;4994461;28;96707;-37
2022/01/19 01:33:12;;;;;;;8.98;4.60;;;;;;;2.52;93.96;103214.19;4995946;28;96739;-37
2022/01/19 01:35:37;;;;;;;4.22;3.17;;;;;;;2.51;94.22;103201.69;4994228;28;101237;-37
2022/01/19 01:38:04;;;;;;;7.13;3.90;;;;;;;2.63;93.59;103225.00;4994204;28;100508;-36
2022/01/19 01:40:33;;;;;;;11.32;5.63;;;;;;;2.78;93.56;103240.28;4994425;28;96581;-37
2022/01/19 01:42:59;;;;;;;10.02;4.80;;;;;;;2.83;93.82;103224.28;4996183;28;96750;-37
2022/01/19 01:45:31;;;;;;;5.30;3.55;;;;;;;2.92;94.19;103219.03;4995607;28;97389;-37
2022/01/19 01:53:27;;;;;;;12.23;4.85;;;;;;;2.91;93.87;103211.88;4994646;28;96540;-36
2022/01/19 01:56:01;;;;;;;8.88;4.13;;;;;;;2.98;93.45;103203.91;4993874;28;100848;-36
2022/01/19 01:58:28;;;;;;;11.30;4.00;;;;;;;2.95;93.31;103194.94;4993340;28;99384;-37
2022/01/19 02:00:55;;;;;;;11.02;4.43;;;;;;;3.02;93.30;103203.94;4993932;28;96584;-37
2022/01/19 02:03:21;;;;;;;10.27;5.05;;;;;;;3.12;93.92;103216.50;4995605;28;96814;-36
2022/01/19 02:08:38;;;;;;;12.40;4.47;;;;;;;3.32;93.96;103195.22;4995985;28;97060;-36
2022/01/19 02:16:33;;;;;;;7.57;4.55;;;;;;;3.64;93.36;103171.28;4993584;28;97052;-37
2022/01/19 02:22:04;;;;;;;5.50;3.00;;;;;;;3.70;92.68;103139.16;4995460;28;96636;-36
2022/01/19 02:24:33;;;;;;;12.15;3.83;;;;;;;3.65;92.55;103114.13;4993467;28;96728;-36
2022/01/19 02:40:37;;;;;;;8.52;5.20;;;;;;;3.81;92.00;103099.91;4994964;28;96862;-37
2022/01/19 02:50:57;;;;;;;12.55;5.85;;;;;;;3.86;92.01;103089.16;4994684;28;96945;-36
2022/01/19 02:53:22;;;;;;;23.13;5.38;;;;;;;3.86;92.05;103082.91;4994109;28;109356;-37
2022/01/19 02:55:47;;;;;;;11.80;4.95;;;;;;;3.82;91.98;103076.66;4994780;28;96724;-36
2022/01/19 02:58:17;;;;;;;12.95;6.35;;;;;;;3.88;92.32;103070.41;4994399;28;98329;-37
2022/01/19 03:08:43;;;;;;;13.98;6.63;;;;;;;3.73;92.16;103045.34;4994953;28;96504;-36
2022/01/19 03:09:18;;;;;;;7.82;4.30;;;;;;;3.81;92.46;103057.00;4993493;28;98816;-37
2022/01/19 03:11:43;;;;;;;12.43;5.65;;;;;;;3.69;92.71;103024.78;4992927;28;101196;-37
2022/01/19 03:14:08;;;;;;;9.63;4.25;;;;;;;3.78;93.00;103040.91;4994664;28;96583;-37
2022/01/19 03:16:34;;;;;;;16.38;6.50;;;;;;;3.79;92.71;103040.03;4994638;28;96707;-37
2022/01/19 03:18:59;;;;;;;13.57;5.22;;;;;;;3.69;92.35;103023.91;4994278;28;97948;-37
2022/01/19 03:21:25;;;;;;;11.65;6.63;;;;;;;3.75;92.82;103026.59;4993313;28;122409;-37
2022/01/19 03:23:50;;;;;;;10.57;4.63;;;;;;;3.68;92.38;103022.13;4993353;28;118057;-36
2022/01/19 03:26:15;;;;;;;8.65;4.57;;;;;;;3.61;92.64;103000.66;4994960;28;96807;-37
2022/01/19 03:28:41;;;;;;;16.05;6.65;;;;;;;3.72;92.35;103010.50;4994372;28;97829;-37
2022/01/19 03:31:06;;;;;;;14.18;6.57;;;;;;;3.64;92.85;102996.19;4994102;28;97000;-37
2022/01/19 03:33:32;;;;;;;15.98;6.60;;;;;;;3.72;92.66;102999.78;4993892;28;96530;-37
2022/01/19 03:35:57;;;;;;;14.82;5.82;;;;;;;3.75;92.31;103003.38;4995601;28;96769;-37
2022/01/19 03:38:23;;;;;;;20.42;6.50;;;;;;;3.76;92.70;102998.91;4997414;28;97919;-37
2022/01/19 03:40:49;;;;;;;20.88;7.95;;;;;;;3.73;92.68;102991.75;4997253;28;99437;-37
2022/01/19 03:43:14;;;;;;;16.60;6.90;;;;;;;3.77;92.61;103009.63;4996187;28;96727;-37
2022/01/19 03:45:39;;;;;;;20.65;7.30;;;;;;;3.68;92.74;102987.28;4997080;28;112039;-37
2022/01/19 03:48:54;;;;;;;15.23;6.38;;;;;;;3.72;92.29;102994.41;4997491;28;97822;-37
2022/01/19 03:50:51;;;;;;;15.88;6.45;;;;;;;3.75;92.42;103011.41;4996085;28;97137;-37
2022/01/19 03:53:17;;;;;;;18.33;6.90;;;;;;;3.74;92.78;103012.31;4996570;28;115570;-36
2022/01/19 03:55:42;;;;;;;10.75;6.18;;;;;;;3.49;92.63;102978.31;4997688;28;96728;-37
2022/01/19 03:58:08;;;;;;;10.10;5.00;;;;;;;3.50;92.31;102972.94;4996397;28;97117;-37
2022/01/19 04:00:35;;;;;;;14.65;6.65;;;;;;;3.52;92.55;102970.28;4996402;28;97296;-37
2022/01/19 04:03:04;;;;;;;13.60;6.35;;;;;;;3.57;93.05;102980.09;4997308;28;96591;-37
2022/01/19 04:08:14;;;;;;;16.75;7.05;;;;;;;3.54;92.77;102974.75;4997280;28;96998;-37
2022/01/19 04:10:39;;;;;;;12.95;6.15;;;;;;;3.60;93.09;102977.44;4995905;28;124731;-37
2022/01/19 04:13:23;;;;;;;11.15;5.97;;;;;;;3.65;92.46;102977.47;4994848;28;117416;-36
2022/01/19 04:15:50;;;;;;;13.77;5.40;;;;;;;3.68;92.86;102987.28;4997716;28;96647;-36
2022/01/19 04:18:16;;;;;;;22.15;6.85;;;;;;;3.74;92.75;102993.56;4995334;28;100689;-37
2022/01/19 04:20:43;;;;;;;10.50;4.72;;;;;;;3.75;92.73;102986.41;4996839;28;97493;-37
2022/01/19 04:23:08;;;;;;;12.50;4.95;;;;;;;3.69;92.81;102984.59;4996534;28;96597;-37
2022/01/19 04:25:34;;;;;;;12.95;5.85;;;;;;;3.77;92.80;102989.97;4997266;28;96754;-36
2022/01/19 04:28:02;;;;;;;16.17;6.85;;;;;;;3.78;92.97;102987.28;4996872;28;97884;-36
2022/01/19 04:30:28;;;;;;;22.48;8.52;;;;;;;3.74;92.73;102980.16;4995027;28;99215;-37
2022/01/19 04:35:25;;;;;;;16.35;6.97;;;;;;;3.79;92.93;102981.06;4997062;28;96746;-36
2022/01/19 05:07:40;;;;;;;3.72;3.03;;;;;;;3.87;93.36;102946.19;4997058;28;96626;-37
2022/01/19 05:15:18;;;;;;;12.75;7.05;;;;;;;3.76;92.89;102907.78;4996244;28;96530;-36
2022/01/19 05:17:44;;;;;;;13.63;7.07;;;;;;;3.77;93.24;102902.41;4996171;28;96720;-37
2022/01/19 05:20:11;;;;;;;13.23;6.30;;;;;;;3.78;93.25;102901.50;4994465;28;100663;-37
2022/01/19 05:22:51;;;;;;;17.45;8.65;;;;;;;3.78;92.88;102893.47;4994436;28;101904;-36
2022/01/19 05:25:17;;;;;;;13.25;5.93;;;;;;;3.88;93.03;102912.25;4996168;28;96548;-36
2022/01/19 05:27:42;;;;;;;25.35;8.40;;;;;;;3.75;93.51;102898.84;4996158;28;96716;-37
2022/01/19 05:30:08;;;;;;;15.05;7.55;;;;;;;3.82;93.13;102908.66;4995795;28;97838;-37
2022/01/19 05:32:33;;;;;;;21.38;9.07;;;;;;;3.95;93.45;102916.69;4994600;28;98875;-37
2022/01/19 05:34:58;;;;;;;15.75;7.20;;;;;;;3.90;93.35;102910.47;4995316;28;105676;-36
2022/01/19 05:37:24;;;;;;;17.27;5.13;;;;;;;3.96;93.05;102907.78;4995318;28;112085;-37
2022/01/19 05:39:49;;;;;;;13.80;7.07;;;;;;;3.92;93.32;102898.84;4994877;28;109137;-36
2022/01/19 05:42:16;;;;;;;13.60;5.55;;;;;;;3.95;93.30;102901.50;4995302;28;108319;-37
2022/01/19 05:44:47;;;;;;;8.68;5.55;;;;;;;3.95;93.17;102892.56;4994358;28;96643;-36
2022/01/19 05:47:14;;;;;;;11.88;5.28;;;;;;;3.95;93.34;102889.88;4994480;28;96701;-36
2022/01/19 05:49:43;;;;;;;11.95;4.65;;;;;;;3.78;93.33;102863.09;4993802;28;100985;-36
2022/01/19 05:52:09;;;;;;;20.10;7.30;;;;;;;3.86;93.21;102873.81;4995074;28;99178;-37
2022/01/19 05:54:35;;;;;;;15.85;3.97;;;;;;;3.91;93.36;102872.94;4995749;28;96627;-37
2022/01/19 05:57:00;;;;;;;15.25;6.97;;;;;;;3.71;93.29;102842.56;4994378;28;98950;-36
2022/01/19 05:59:26;;;;;;;11.85;6.57;;;;;;;3.90;93.02;102855.03;4993923;28;97488;-36
2022/01/19 06:01:51;;;;;;;14.85;7.10;;;;;;;3.82;93.06;102835.41;4993858;28;101232;-37
2022/01/19 06:04:16;;;;;;;11.80;6.70;;;;;;;3.98;92.84;102844.31;4994548;28;98125;-37
2022/01/19 06:06:42;;;;;;;14.07;4.97;;;;;;;3.86;92.72;102817.53;4993475;28;110024;-37
2022/01/19 06:09:22;;;;;;;14.00;5.75;;;;;;;3.98;92.96;102844.31;4994548;28;116720;-37
2022/01/19 06:11:47;;;;;;;12.50;5.55;;;;;;;3.99;93.23;102844.31;4995165;28;97805;-37
2022/01/19 06:14:13;;;;;;;18.38;7.25;;;;;;;3.93;93.39;102835.38;4995412;28;96731;-36
2022/01/19 06:16:39;;;;;;;14.80;5.95;;;;;;;3.95;92.89;102830.91;4995001;28;103852;-37
2022/01/19 06:19:05;;;;;;;10.02;5.22;;;;;;;3.94;92.95;102823.78;4995072;28;97928;-36
2022/01/19 06:21:31;;;;;;;16.85;5.57;;;;;;;3.97;92.98;102829.13;4993979;28;99009;-37
2022/01/19 06:23:56;;;;;;;12.00;6.78;;;;;;;3.98;93.26;102826.44;4995716;28;96775;-37
2022/01/19 06:26:21;;;;;;;15.32;6.38;;;;;;;3.89;92.93;102796.97;4994768;28;103252;-36
2022/01/19 06:28:46;;;;;;;18.27;6.82;;;;;;;3.98;93.24;102815.72;4994209;28;103360;-37
2022/01/19 06:31:12;;;;;;;11.98;5.55;;;;;;;3.89;93.32;102802.34;4975914;28;124874;-36
2022/01/19 06:33:37;;;;;;;13.52;7.45;;;;;;;3.98;93.32;102815.72;4994523;28;117078;-36
2022/01/19 06:36:03;;;;;;;9.77;6.03;;;;;;;3.95;92.93;102804.97;4995143;28;96550;-37
2022/01/19 06:38:28;;;;;;;21.70;6.95;;;;;;;3.87;92.77;102789.84;4994919;28;97219;-37
2022/01/19 06:40:54;;;;;;;13.55;4.75;;;;;;;4.00;92.91;102811.25;4994711;28;97809;-37
2022/01/19 06:43:19;;;;;;;14.15;6.88;;;;;;;3.88;93.05;102786.25;4994334;28;109454;-36
2022/01/19 06:45:44;;;;;;;15.80;6.60;;;;;;;3.87;93.15;102782.69;4995358;28;96768;-36
2022/01/19 06:48:10;;;;;;;20.10;7.35;;;;;;;3.73;92.97;102749.66;4994694;28;97918;-37
2022/01/19 06:50:35;;;;;;;13.55;5.38;;;;;;;3.91;93.26;102773.75;4993946;28;117686;-37
2022/01/19 06:53:00;;;;;;;12.95;7.00;;;;;;;3.91;92.73;102770.16;4993785;28;110939;-37
2022/01/19 06:55:26;;;;;;;12.82;5.80;;;;;;;4.04;92.81;102788.00;4995054;28;96602;-37
2022/01/19 06:57:51;;;;;;;13.07;6.45;;;;;;;3.94;93.05;102770.16;4992794;28;99039;-37
2022/01/19 07:00:16;;;;;;;15.43;5.05;;;;;;;4.07;93.11;102787.09;4992967;28;119161;-36
2022/01/19 07:02:42;;;;;;;16.55;7.80;;;;;;;3.92;93.27;102758.53;4994783;28;96511;-36
2022/01/19 07:05:08;;;;;;;14.80;6.75;;;;;;;3.91;92.95;102754.06;4994870;28;96815;-37
2022/01/19 07:07:33;;;;;;;21.05;5.38;;;;;;;4.02;93.29;102773.69;4994765;28;97134;-37
2022/01/19 07:09:59;;;;;;;12.90;5.38;;;;;;;3.92;93.55;102750.50;4994597;28;97804;-36
2022/01/19 07:12:26;;;;;;;11.80;5.72;;;;;;;3.93;93.16;102746.91;4998078;28;96479;-37
2022/01/19 07:14:52;;;;;;;12.73;5.68;;;;;;;4.04;93.30;102766.53;4996695;28;96775;-37
2022/01/19 07:17:17;;;;;;;19.15;7.85;;;;;;;3.93;93.11;102738.88;4997758;28;97443;-37
2022/01/19 07:19:42;;;;;;;12.18;4.85;;;;;;;4.03;93.62;102759.41;4997760;28;97799;-37
2022/01/19 07:22:08;;;;;;;8.68;4.72;;;;;;;4.03;93.22;102746.00;4996724;28;96513;-37
2022/01/19 07:24:33;;;;;;;17.15;8.25;;;;;;;4.03;93.16;102759.41;4997866;28;96481;-37
2022/01/19 07:26:58;;;;;;;11.48;4.68;;;;;;;4.04;92.89;102751.34;4997477;28;99288;-36
2022/01/19 07:29:24;;;;;;;11.05;5.07;;;;;;;4.04;92.89;102745.97;4997665;28;97165;-37
2022/01/19 07:31:50;;;;;;;8.70;5.75;;;;;;;3.96;93.14;102728.16;4997924;28;96548;-37
2022/01/19 07:34:15;;;;;;;7.22;4.50;;;;;;;4.11;93.15;102757.56;4996889;28;96926;-37
2022/01/19 07:36:41;;;;;;;17.20;5.88;;;;;;;3.97;92.65;102729.94;4997920;28;97578;-36
2022/01/19 07:39:08;;;;;;;9.48;4.97;;;;;;;4.12;92.84;102756.66;4997504;28;97808;-37
2022/01/19 07:41:33;;;;;;;18.45;7.25;;;;;;;3.99;92.91;102725.44;4997302;28;96494;-37
2022/01/19 07:43:58;;;;;;;9.60;4.90;;;;;;;4.01;93.04;102729.03;4997944;28;96766;-37
2022/01/19 07:46:24;;;;;;;13.73;6.60;;;;;;;4.14;92.91;102751.31;4996880;28;116302;-37
2022/01/19 07:48:49;;;;;;;19.60;6.97;;;;;;;4.14;92.57;102749.50;4997395;28;97795;-37
2022/01/19 07:51:15;;;;;;;10.82;5.85;;;;;;;4.12;92.73;102748.63;4998034;28;112088;-37
2022/01/19 07:53:40;;;;;;;21.13;7.45;;;;;;;4.03;92.95;102733.47;5017660;28;96737;-37
2022/01/19 07:56:06;;;;;;;16.10;8.35;;;;;;;4.11;92.61;102746.84;5016386;28;120765;-37
2022/01/19 07:58:31;;;;;;;8.10;4.32;;;;;;;4.02;93.14;102725.44;5017063;28;97818;-37
2022/01/19 08:00:57;;;;;;;12.82;6.68;;;;;;;4.10;92.59;102733.44;5015326;28;96723;-37
2022/01/19 08:03:23;;;;;;;20.25;5.82;;;;;;;4.17;93.07;102740.56;5017596;28;96729;-36
2022/01/19 08:05:48;;;;;;;10.10;5.00;;;;;;;4.16;92.74;102734.31;5015268;28;101006;-36
2022/01/19 08:08:14;;;;;;;14.93;6.20;;;;;;;4.16;92.73;102733.41;5017271;28;97890;-37
2022/01/19 08:10:42;;;;;;;13.88;5.93;;;;;;;4.07;92.91;102704.84;5017376;28;96557;-36
2022/01/19 08:13:07;;;;;;;10.88;5.95;;;;;;;4.13;92.67;102718.25;5015780;28;96815;-37
2022/01/19 08:15:33;;;;;;;12.10;7.07;;;;;;;4.08;92.91;102706.66;5016924;28;97813;-36
2022/01/19 08:17:58;;;;;;;29.88;9.57;;;;;;;4.07;92.34;102690.56;5016314;28;112915;-37
2022/01/19 08:20:23;;;;;;;17.67;7.30;;;;;;;4.05;92.51;102687.88;5016382;28;114855;-36
2022/01/19 08:22:48;;;;;;;14.57;4.90;;;;;;;4.18;92.25;102699.44;5016803;28;96822;-36
2022/01/19 08:25:14;;;;;;;13.45;3.80;;;;;;;4.09;92.10;102680.72;5016068;28;117719;-37
2022/01/19 08:27:39;;;;;;;16.65;8.05;;;;;;;4.15;92.12;102689.63;5016752;28;97876;-36
2022/01/19 08:30:09;;;;;;;13.60;5.80;;;;;;;4.01;92.35;102673.59;5014770;28;96924;-36
2022/01/19 08:32:35;;;;;;;11.73;6.20;;;;;;;4.18;92.14;102700.34;5016822;28;96827;-36
2022/01/19 08:35:05;;;;;;;16.50;6.53;;;;;;;4.21;92.17;102705.66;5015217;28;101007;-37
2022/01/19 08:37:31;;;;;;;9.75;5.85;;;;;;;4.09;91.71;102689.66;5015264;28;101952;-37
2022/01/19 08:39:57;;;;;;;8.00;4.20;;;;;;;4.15;92.37;102700.34;5016948;28;96533;-37
2022/01/19 08:42:22;;;;;;;9.07;5.00;;;;;;;4.15;92.22;102705.72;5015453;28;96815;-37
2022/01/19 08:44:48;;;;;;;16.48;7.57;;;;;;;4.07;92.31;102683.41;5015892;28;110361;-36
2022/01/19 08:47:14;;;;;;;12.48;6.38;;;;;;;4.15;92.33;102705.72;5016897;28;96555;-36
2022/01/19 08:49:39;;;;;;;22.52;8.10;;;;;;;4.17;92.75;102711.06;5016857;28;96484;-36
2022/01/19 08:52:05;;;;;;;16.58;6.78;;;;;;;4.15;92.57;102711.09;5016848;28;96809;-36
2022/01/19 08:54:31;;;;;;;12.90;6.57;;;;;;;4.17;92.56;102717.34;5016011;28;97955;-37
2022/01/19 08:56:59;;;;;;;16.17;5.85;;;;;;;4.04;92.89;102686.97;5014782;28;101090;-37
2022/01/19 08:59:25;;;;;;;11.63;6.13;;;;;;;4.05;92.92;102682.50;5015732;28;96998;-37
2022/01/19 09:01:50;;;;;;;9.38;6.10;;;;;;;4.06;92.57;102675.38;5015135;28;96764;-36
2022/01/19 09:04:15;;;;;;;15.07;5.60;;;;;;;4.20;92.79;102686.94;5016298;28;97889;-37
2022/01/19 09:06:41;;;;;;;19.27;7.68;;;;;;;4.18;92.78;102683.34;5015520;28;126711;-36
2022/01/19 09:09:06;;;;;;;16.63;6.93;;;;;;;4.05;92.92;102650.34;5016296;28;96683;-37
2022/01/19 09:11:31;;;;;;;13.10;5.50;;;;;;;4.03;92.95;102642.31;5015571;28;115302;-36
2022/01/19 09:13:57;;;;;;;9.93;3.95;;;;;;;4.03;93.04;102630.72;5015796;28;105072;-36
2022/01/19 09:16:23;;;;;;;12.98;5.25;;;;;;;4.15;92.82;102652.09;5014415;28;98836;-36
2022/01/19 09:18:48;;;;;;;16.13;6.65;;;;;;;4.20;92.94;102654.75;5014365;28;96476;-36
2022/01/19 09:21:13;;;;;;;10.63;6.40;;;;;;;4.09;92.46;102629.78;5016339;28;96764;-36
2022/01/19 09:23:39;;;;;;;17.42;5.07;;;;;;;4.17;92.40;102623.47;5015806;28;101285;-36
2022/01/19 09:26:06;;;;;;;14.38;6.50;;;;;;;4.19;92.50;102624.31;5015794;28;97904;-36
2022/01/19 09:28:31;;;;;;;13.05;6.97;;;;;;;4.18;92.54;102630.59;5016018;28;96470;-36
2022/01/19 09:31:00;;;;;;;8.98;4.47;;;;;;;4.17;92.42;102617.19;5015949;28;96768;-36
2022/01/19 09:33:29;;;;;;;14.43;5.57;;;;;;;4.10;92.45;102600.28;5014439;28;98280;-36
2022/01/19 09:38:32;;;;;;;15.10;6.57;;;;;;;4.12;92.47;102593.09;5015921;28;96747;-36
2022/01/19 09:40:59;;;;;;;11.63;6.55;;;;;;;4.22;92.51;102602.88;5014221;28;96745;-36
2022/01/19 09:43:25;;;;;;;15.40;5.72;;;;;;;4.07;92.89;102572.56;5013651;28;100944;-37
2022/01/19 09:45:53;;;;;;;7.85;5.05;;;;;;;4.18;92.63;102609.16;5015599;28;97862;-37
2022/01/19 09:48:18;;;;;;;9.27;5.05;;;;;;;4.13;93.04;102604.72;5014344;28;96539;-36
2022/01/19 09:50:44;;;;;;;8.65;4.05;;;;;;;4.16;92.94;102615.44;5015604;28;96435;-36
2022/01/19 09:53:09;;;;;;;17.73;6.93;;;;;;;4.12;92.71;102601.13;5015106;28;98062;-37
2022/01/19 09:55:37;;;;;;;14.68;6.95;;;;;;;4.09;92.61;102587.75;5013749;28;99779;-36
2022/01/19 09:58:03;;;;;;;11.88;6.47;;;;;;;3.96;92.30;102576.22;5013867;28;96762;-37
2022/01/19 10:00:28;;;;;;;13.70;7.10;;;;;;;4.09;92.84;102603.84;5015212;28;96748;-37
2022/01/19 10:03:23;;;;;;;18.15;6.57;;;;;;;4.08;92.43;102603.88;5015352;28;98473;-36
2022/01/19 10:06:11;;;;;;;22.52;8.38;;;;;;;4.10;92.49;102612.78;5013623;28;101012;-37
2022/01/19 10:08:38;;;;;;;9.60;5.82;;;;;;;4.15;92.68;102613.66;5014766;28;96581;-36
2022/01/19 10:17:02;;;;;;;19.45;6.45;;;;;;;4.09;92.36;102614.56;5015253;28;97006;-37
2022/01/19 10:19:35;;;;;;;13.95;7.03;;;;;;;4.06;92.83;102611.91;5013792;28;96648;-36
2022/01/19 10:22:03;;;;;;;12.15;7.55;;;;;;;4.10;92.61;102624.41;5013996;28;96714;-36
2022/01/19 10:24:37;;;;;;;12.23;5.85;;;;;;;4.12;92.53;102625.25;5013163;28;100969;-37
2022/01/19 10:27:24;;;;;;;21.52;9.18;;;;;;;4.12;92.38;102614.53;5013774;28;100850;-36
2022/01/19 10:29:53;;;;;;;13.48;5.82;;;;;;;4.01;92.21;102585.13;5015392;28;96576;-37
2022/01/19 10:32:23;;;;;;;24.75;9.38;;;;;;;4.12;92.22;102605.59;5013642;28;96777;-36
2022/01/19 10:34:49;;;;;;;14.15;6.55;;;;;;;4.11;92.69;102602.03;5012653;28;100900;-37
2022/01/19 10:37:21;;;;;;;21.67;9.15;;;;;;;4.12;92.31;102603.81;5013359;28;99050;-37
2022/01/19 10:39:50;;;;;;;12.85;5.55;;;;;;;4.12;92.41;102598.44;5013732;28;96695;-36
2022/01/19 10:42:23;;;;;;;14.43;7.68;;;;;;;4.00;91.99;102572.63;5013604;28;96772;-36
2022/01/19 10:44:55;;;;;;;16.45;6.93;;;;;;;4.17;92.64;102591.28;5012787;28;101218;-37
2022/01/19 10:48:05;;;;;;;15.15;6.03;;;;;;;4.18;92.61;102587.69;5013003;28;101053;-36
2022/01/19 10:50:32;;;;;;;15.13;6.93;;;;;;;4.08;92.41;102548.44;5013077;28;96884;-37
2022/01/19 10:53:00;;;;;;;11.98;5.78;;;;;;;4.18;92.33;102560.00;5015256;28;96733;-36
2022/01/19 10:55:32;;;;;;;23.38;8.02;;;;;;;4.21;92.38;102559.97;5013102;28;101147;-36
2022/01/19 10:57:59;;;;;;;8.77;5.10;;;;;;;4.07;92.40;102533.25;5012638;28;100522;-36
2022/01/19 11:00:30;;;;;;;17.75;9.00;;;;;;;4.24;92.65;102549.19;5012082;28;96727;-36
2022/01/19 11:03:17;;;;;;;18.43;7.80;;;;;;;4.25;92.44;102540.28;5013304;28;96805;-37
2022/01/19 11:05:57;;;;;;;10.05;4.65;;;;;;;4.26;92.23;102524.13;5012888;28;101299;-36
2022/01/19 11:08:25;;;;;;;15.02;7.15;;;;;;;4.36;92.35;102518.69;5013980;28;99345;-37
2022/01/19 11:10:53;;;;;;;22.55;8.57;;;;;;;4.36;92.14;102503.53;5013025;28;96756;-36
2022/01/19 11:13:29;;;;;;;21.30;7.82;;;;;;;4.49;92.11;102517.69;5013081;28;96809;-36
2022/01/19 11:16:03;;;;;;;16.10;5.95;;;;;;;4.48;92.11;102502.50;5012901;28;101127;-36
2022/01/19 11:18:32;;;;;;;19.52;8.27;;;;;;;4.43;91.94;102486.47;5012998;28;100888;-36
2022/01/19 11:21:05;;;;;;;21.70;7.63;;;;;;;4.56;91.80;102505.13;5014242;28;96594;-37
2022/01/19 11:23:38;;;;;;;12.60;6.18;;;;;;;4.60;91.84;102506.84;5014760;28;96657;-36
2022/01/19 11:26:09;;;;;;;17.20;8.18;;;;;;;4.42;92.14;102476.63;5012333;28;101026;-37
2022/01/19 11:28:46;;;;;;;20.92;7.72;;;;;;;4.65;92.00;102497.88;5012736;28;100842;-36
2022/01/19 11:31:15;;;;;;;11.50;5.72;;;;;;;4.59;91.69;102478.25;5012782;28;96645;-36
2022/01/19 11:33:43;;;;;;;23.45;10.20;;;;;;;4.55;91.77;102468.44;5013097;28;96789;-37
2022/01/19 11:36:43;;;;;;;21.50;9.55;;;;;;;4.69;91.77;102482.59;5012464;28;100742;-36
2022/01/19 11:39:12;;;;;;;21.42;8.40;;;;;;;4.57;91.53;102454.09;5004897;28;100856;-36
2022/01/19 11:41:55;;;;;;;16.08;7.53;;;;;;;4.62;91.52;102438.88;5012651;28;96705;-36
2022/01/19 11:44:37;;;;;;;17.40;6.97;;;;;;;4.80;91.85;102461.91;5013585;28;96800;-36
2022/01/19 11:47:29;;;;;;;14.85;6.88;;;;;;;4.82;91.59;102452.03;5013955;28;97898;-36
2022/01/19 11:49:59;;;;;;;11.18;4.22;;;;;;;4.86;92.05;102455.56;5013904;28;97820;-36
2022/01/19 11:52:36;;;;;;;16.08;6.95;;;;;;;4.88;91.53;102445.69;5011916;28;96880;-36
2022/01/19 11:55:23;;;;;;;17.10;8.00;;;;;;;4.75;91.56;102412.75;5012712;28;96770;-36
2022/01/19 11:58:09;;;;;;;19.77;7.72;;;;;;;4.90;91.64;102433.16;5014176;28;100980;-37
2022/01/19 12:00:35;;;;;;;21.30;9.77;;;;;;;4.96;91.56;102438.47;5016006;28;98670;-36
2022/01/19 12:03:26;;;;;;;16.33;6.72;;;;;;;4.83;91.50;102401.91;5016131;28;96538;-36
2022/01/19 12:05:53;;;;;;;28.08;8.15;;;;;;;4.95;91.32;102415.19;5015989;28;96664;-37
2022/01/19 12:08:22;;;;;;;12.77;6.20;;;;;;;5.00;91.36;102418.69;5015442;28;100856;-36
2022/01/19 12:10:51;;;;;;;13.55;7.30;;;;;;;5.00;91.30;102407.06;5015664;28;101226;-37
2022/01/19 12:13:32;;;;;;;20.45;8.80;;;;;;;5.02;91.48;102383.78;5015814;28;96672;-36
2022/01/19 12:16:19;;;;;;;18.98;7.35;;;;;;;4.98;91.27;102382.03;5015851;28;96816;-36
2022/01/19 12:19:01;;;;;;;20.23;9.10;;;;;;;4.99;90.88;102384.72;5015037;28;99688;-36
2022/01/19 12:21:29;;;;;;;21.33;7.80;;;;;;;5.04;91.32;102379.28;5016562;28;99194;-36
2022/01/19 12:23:54;;;;;;;18.88;7.57;;;;;;;4.94;91.05;102361.53;5015209;28;103517;-36
2022/01/19 12:26:19;;;;;;;30.90;9.68;;;;;;;5.02;90.69;102365.84;5016496;28;103608;-36
2022/01/19 12:28:49;;;;;;;10.52;5.65;;;;;;;4.94;90.94;102342.72;5016745;28;97848;-37
2022/01/19 12:31:35;;;;;;;13.77;8.10;;;;;;;5.04;90.95;102358.69;5015009;28;101273;-37
2022/01/19 12:34:09;;;;;;;13.05;6.45;;;;;;;5.03;90.83;102362.28;5015550;28;96536;-36
2022/01/19 12:36:48;;;;;;;12.57;6.05;;;;;;;5.09;90.78;102375.59;5017571;28;96559;-36
2022/01/19 12:39:26;;;;;;;15.88;10.07;;;;;;;5.10;90.82;102371.13;5015120;28;101146;-37
2022/01/19 12:42:03;;;;;;;19.00;8.90;;;;;;;5.10;90.76;102377.41;5016368;28;97967;-36
2022/01/19 12:44:35;;;;;;;11.27;5.40;;;;;;;5.09;91.10;102367.53;5016101;28;96732;-36
2022/01/19 12:47:25;;;;;;;18.55;8.57;;;;;;;4.93;91.12;102344.50;5016694;28;96765;-36
2022/01/19 12:50:08;;;;;;;15.07;6.45;;;;;;;5.05;90.91;102356.88;5015823;28;99142;-36
2022/01/19 12:52:40;;;;;;;18.13;8.48;;;;;;;4.94;90.80;102322.13;5016235;28;98000;-37
2022/01/19 12:55:17;;;;;;;31.98;11.07;;;;;;;4.82;90.87;102300.84;5015301;28;96558;-36
2022/01/19 12:57:43;;;;;;;16.23;7.00;;;;;;;5.03;91.09;102327.38;5015169;28;96678;-37
2022/01/19 13:00:14;;;;;;;19.85;8.45;;;;;;;5.06;91.20;102323.75;5015527;28;98130;-36
2022/01/19 13:02:39;;;;;;;24.38;9.68;;;;;;;4.94;91.09;102299.78;5016632;28;98040;-36
2022/01/19 13:05:08;;;;;;;19.60;9.25;;;;;;;4.93;91.36;102296.16;5014649;28;96632;-36